Time,TemperatureF,DewpointF,PressureIn,WindDirection,WindDirectionDegrees,WindSpeedMPH,WindSpeedGustMPH,Humidity,HourlyPrecipIn,Conditions,Clouds,dailyrainin,SoftwareType,DateUTC
2013-10-03 00:00:00,79.9,68.8,29.85,North,0,0.0,0.0,69,0.00,,SCT070,0.00,VWS V14.01,2013-10-03 04:00:00,
2013-10-03 00:01:00,79.9,68.8,29.85,North,0,0.0,0.0,69,0.00,,SCT070,0.00,VWS V14.01,2013-10-03 04:01:00,
2013-10-03 00:02:00,79.9,68.8,29.85,North,0,0.0,0.0,69,0.00,,SCT070,0.00,VWS V14.01,2013-10-03 04:02:00,
2013-10-03 00:07:00,79.9,68.8,29.85,North,0,0.0,0.0,69,0.00,,SCT070,0.00,VWS V14.01,2013-10-03 04:07:00,
2013-10-03 00:12:00,79.7,68.6,29.85,North,0,0.0,0.0,69,0.00,,SCT070,0.00,VWS V14.01,2013-10-03 04:12:00,
2013-10-03 00:17:00,79.7,69.1,29.85,North,0,0.0,0.0,70,0.00,,SCT070,0.00,VWS V14.01,2013-10-03 04:17:00,
2013-10-03 00:22:00,79.5,68.9,29.85,North,0,0.0,0.0,70,0.00,,SCT070,0.00,VWS V14.01,2013-10-03 04:22:00,
2013-10-03 00:27:00,79.5,68.9,29.85,North,0,0.0,0.0,70,0.00,,SCT070,0.00,VWS V14.01,2013-10-03 04:27:00,
2013-10-03 00:32:00,79.5,68.9,29.85,North,0,0.0,0.0,70,0.00,,SCT070,0.00,VWS V14.01,2013-10-03 04:32:00,
2013-10-03 00:37:00,79.5,69.3,29.85,North,0,0.0,0.0,71,0.00,,SCT070,0.00,VWS V14.01,2013-10-03 04:37:00,
2013-10-03 00:42:00,79.3,68.7,29.85,North,0,0.0,0.0,70,0.00,,SCT070,0.00,VWS V14.01,2013-10-03 04:42:00,
2013-10-03 00:47:00,79.3,69.1,29.85,North,0,0.0,0.0,71,0.00,,SCT070,0.00,VWS V14.01,2013-10-03 04:47:00,
2013-10-03 00:52:00,79.2,68.9,29.85,North,0,0.0,0.0,71,0.00,,SCT070,0.00,VWS V14.01,2013-10-03 04:52:00,
2013-10-03 00:57:00,79.0,68.8,29.85,North,0,0.0,0.0,71,0.00,,SCT070,0.00,VWS V14.01,2013-10-03 04:57:00,
2013-10-03 01:02:00,78.8,68.6,29.85,North,0,0.0,0.0,71,0.00,,SCT070,0.00,VWS V14.01,2013-10-03 05:02:00,
2013-10-03 01:07:00,78.6,69.2,29.85,North,0,0.0,0.0,73,0.00,,SCT070,0.00,VWS V14.01,2013-10-03 05:07:00,
2013-10-03 01:12:00,78.6,69.7,29.85,North,0,0.0,0.0,74,0.00,,SCT070,0.00,VWS V14.01,2013-10-03 05:12:00,
2013-10-03 01:17:00,78.6,69.7,29.85,North,0,0.0,0.0,74,0.00,,SCT070,0.00,VWS V14.01,2013-10-03 05:17:00,
2013-10-03 01:22:00,78.6,70.0,29.85,North,0,0.0,0.0,75,0.00,,SCT070,0.00,VWS V14.01,2013-10-03 05:22:00,
2013-10-03 01:27:00,78.6,70.0,29.85,North,0,0.0,0.0,75,0.00,,SCT070,0.00,VWS V14.01,2013-10-03 05:27:00,
2013-10-03 01:32:00,78.6,69.7,29.85,North,0,0.0,0.0,74,0.00,,SCT070,0.00,VWS V14.01,2013-10-03 05:32:00,
2013-10-03 01:37:00,78.8,69.8,29.85,North,0,0.0,0.0,74,0.00,,SCT070,0.00,VWS V14.01,2013-10-03 05:37:00,
2013-10-03 01:42:00,79.0,70.0,29.82,North,0,0.0,0.0,74,0.00,,SCT070,0.00,VWS V14.01,2013-10-03 05:42:00,
2013-10-03 01:47:00,79.0,70.0,29.82,North,0,0.0,0.0,74,0.00,,SCT070,0.00,VWS V14.01,2013-10-03 05:47:00,
2013-10-03 01:52:00,79.2,70.2,29.82,North,0,0.0,0.0,74,0.00,,SCT070,0.00,VWS V14.01,2013-10-03 05:52:00,
2013-10-03 01:57:00,79.0,69.6,29.82,North,0,0.0,0.0,73,0.00,,SCT070,0.00,VWS V14.01,2013-10-03 05:57:00,
2013-10-03 02:02:00,78.8,69.4,29.82,North,0,0.0,0.0,73,0.00,,SCT070,0.00,VWS V14.01,2013-10-03 06:02:00,
2013-10-03 02:07:00,78.6,69.2,29.82,North,0,0.0,0.0,73,0.00,,SCT070,0.00,VWS V14.01,2013-10-03 06:07:00,
2013-10-03 02:12:00,78.3,68.9,29.82,North,0,0.0,0.0,73,0.00,,SCT070,0.00,VWS V14.01,2013-10-03 06:12:00,
2013-10-03 02:17:00,78.1,69.1,29.82,North,0,0.0,0.0,74,0.00,,SCT070,0.00,VWS V14.01,2013-10-03 06:17:00,
2013-10-03 02:22:00,78.1,69.5,29.82,North,0,0.0,0.0,75,0.00,,SCT070,0.00,VWS V14.01,2013-10-03 06:22:00,
2013-10-03 02:27:00,78.1,69.9,29.82,North,0,0.0,0.0,76,0.00,,SCT070,0.00,VWS V14.01,2013-10-03 06:27:00,
2013-10-03 02:32:00,78.1,69.9,29.82,North,0,0.0,0.0,76,0.00,,SCT070,0.00,VWS V14.01,2013-10-03 06:32:00,
2013-10-03 02:37:00,78.1,69.9,29.82,North,0,0.0,0.0,76,0.00,,SCT070,0.00,VWS V14.01,2013-10-03 06:37:00,
2013-10-03 02:42:00,78.1,69.9,29.82,North,0,0.0,0.0,76,0.00,,SCT070,0.00,VWS V14.01,2013-10-03 06:42:00,
2013-10-03 02:47:00,78.3,70.1,29.82,North,0,0.0,0.0,76,0.00,,SCT070,0.00,VWS V14.01,2013-10-03 06:47:00,
2013-10-03 02:52:00,78.4,70.2,29.82,North,0,0.0,0.0,76,0.00,,SCT070,0.00,VWS V14.01,2013-10-03 06:52:00,
2013-10-03 02:57:00,78.3,70.1,29.82,North,0,0.0,0.0,76,0.00,,SCT070,0.00,VWS V14.01,2013-10-03 06:57:00,
2013-10-03 03:02:00,78.1,69.5,29.82,North,0,0.0,0.0,75,0.00,,SCT070,0.00,VWS V14.01,2013-10-03 07:02:00,
2013-10-03 03:07:00,78.3,70.1,29.82,North,0,0.0,0.0,76,0.00,,SCT070,0.00,VWS V14.01,2013-10-03 07:07:00,
2013-10-03 03:12:00,78.3,70.1,29.82,North,0,0.0,0.0,76,0.00,,SCT070,0.00,VWS V14.01,2013-10-03 07:12:00,
2013-10-03 03:17:00,78.3,70.1,29.82,North,0,0.0,0.0,76,0.00,,SCT070,0.00,VWS V14.01,2013-10-03 07:17:00,
2013-10-03 03:22:00,78.1,69.5,29.82,North,0,0.0,0.0,75,0.00,,SCT070,0.00,VWS V14.01,2013-10-03 07:22:00,
2013-10-03 03:27:00,77.9,69.3,29.82,North,0,0.0,0.0,75,0.00,,SCT070,0.00,VWS V14.01,2013-10-03 07:27:00,
2013-10-03 03:32:00,77.7,69.2,29.82,North,0,0.0,0.0,75,0.00,,SCT070,0.00,VWS V14.01,2013-10-03 07:32:00,
2013-10-03 03:37:00,77.5,69.0,29.82,North,0,0.0,0.0,75,0.00,,SCT070,0.00,VWS V14.01,2013-10-03 07:37:00,
2013-10-03 03:42:00,77.5,69.0,29.82,North,0,0.0,0.0,75,0.00,,SCT070,0.00,VWS V14.01,2013-10-03 07:42:00,
2013-10-03 03:47:00,77.5,69.0,29.82,North,0,0.0,0.0,75,0.00,,SCT070,0.00,VWS V14.01,2013-10-03 07:47:00,
2013-10-03 03:52:00,77.4,68.8,29.82,North,0,0.0,0.0,75,0.00,,SCT070,0.00,VWS V14.01,2013-10-03 07:52:00,
2013-10-03 03:57:00,77.2,69.0,29.82,North,0,0.0,0.0,76,0.00,,SCT070,0.00,VWS V14.01,2013-10-03 07:57:00,
2013-10-03 04:02:00,77.2,69.0,29.82,North,0,0.0,0.0,76,0.00,,SCT070,0.00,VWS V14.01,2013-10-03 08:02:00,
2013-10-03 04:07:00,77.2,69.4,29.82,North,0,0.0,0.0,77,0.00,,SCT070,0.00,VWS V14.01,2013-10-03 08:07:00,
2013-10-03 04:12:00,77.0,69.2,29.82,North,0,0.0,0.0,77,0.00,,SCT070,0.00,VWS V14.01,2013-10-03 08:12:00,
2013-10-03 04:17:00,77.0,69.2,29.82,North,0,0.0,0.0,77,0.00,,SCT070,0.00,VWS V14.01,2013-10-03 08:17:00,
2013-10-03 04:22:00,77.0,69.2,29.82,North,0,0.0,0.0,77,0.00,,SCT070,0.00,VWS V14.01,2013-10-03 08:22:00,
2013-10-03 04:27:00,77.0,69.6,29.82,North,0,0.0,0.0,78,0.00,,SCT070,0.00,VWS V14.01,2013-10-03 08:27:00,
2013-10-03 04:32:00,76.8,69.8,29.82,North,0,0.0,0.0,79,0.00,,SCT070,0.00,VWS V14.01,2013-10-03 08:32:00,
2013-10-03 04:37:00,77.0,69.6,29.82,North,0,0.0,0.0,78,0.00,,SCT070,0.00,VWS V14.01,2013-10-03 08:37:00,
2013-10-03 04:42:00,77.2,70.2,29.82,North,0,0.0,0.0,79,0.00,,SCT070,0.00,VWS V14.01,2013-10-03 08:42:00,
2013-10-03 04:47:00,77.0,70.0,29.82,North,0,0.0,0.0,79,0.00,,SCT070,0.00,VWS V14.01,2013-10-03 08:47:00,
2013-10-03 04:52:00,77.0,70.0,29.82,North,0,0.0,0.0,79,0.00,,SCT070,0.00,VWS V14.01,2013-10-03 08:52:00,
2013-10-03 04:57:00,77.0,70.0,29.82,North,0,0.0,0.0,79,0.00,,SCT070,0.00,VWS V14.01,2013-10-03 08:57:00,
2013-10-03 05:02:00,77.0,70.0,29.82,North,0,0.0,0.0,79,0.00,,SCT070,0.00,VWS V14.01,2013-10-03 09:02:00,
2013-10-03 05:07:00,77.0,70.0,29.82,North,0,0.0,0.0,79,0.00,,SCT070,0.00,VWS V14.01,2013-10-03 09:07:00,
2013-10-03 05:12:00,77.0,70.0,29.82,North,0,0.0,0.0,79,0.00,,SCT070,0.00,VWS V14.01,2013-10-03 09:12:00,
2013-10-03 05:17:00,77.0,70.0,29.82,North,0,0.0,0.0,79,0.00,,SCT070,0.00,VWS V14.01,2013-10-03 09:17:00,
2013-10-03 05:22:00,77.0,70.0,29.82,North,0,0.0,0.0,79,0.00,,SCT070,0.00,VWS V14.01,2013-10-03 09:22:00,
2013-10-03 05:28:00,77.0,70.4,29.82,North,0,0.0,0.0,80,0.00,,SCT070,0.00,VWS V14.01,2013-10-03 09:28:00,
2013-10-03 05:33:00,77.0,70.4,29.82,North,0,0.0,0.0,80,0.00,,SCT070,0.00,VWS V14.01,2013-10-03 09:33:00,
2013-10-03 05:38:00,77.2,70.5,29.82,North,0,0.0,0.0,80,0.00,,SCT070,0.00,VWS V14.01,2013-10-03 09:38:00,
2013-10-03 05:43:00,77.0,70.4,29.85,North,0,0.0,0.0,80,0.00,,SCT070,0.00,VWS V14.01,2013-10-03 09:43:00,
2013-10-03 05:48:00,77.2,70.9,29.85,North,0,0.0,0.0,81,0.00,,SCT070,0.00,VWS V14.01,2013-10-03 09:48:00,
2013-10-03 05:53:00,77.2,70.9,29.85,North,0,0.0,0.0,81,0.00,,SCT070,0.00,VWS V14.01,2013-10-03 09:53:00,
2013-10-03 05:58:00,77.2,70.9,29.82,North,0,0.0,0.0,81,0.00,,SCT070,0.00,VWS V14.01,2013-10-03 09:58:00,
2013-10-03 06:03:00,77.2,70.9,29.82,North,0,0.0,0.0,81,0.00,,SCT070,0.00,VWS V14.01,2013-10-03 10:03:00,
2013-10-03 06:08:00,77.0,70.7,29.82,North,0,0.0,0.0,81,0.00,,SCT070,0.00,VWS V14.01,2013-10-03 10:08:00,
2013-10-03 06:13:00,76.8,70.9,29.85,North,0,0.0,0.0,82,0.00,,SCT070,0.00,VWS V14.01,2013-10-03 10:13:00,
2013-10-03 06:18:00,77.0,71.1,29.85,North,0,0.0,0.0,82,0.00,,SCT070,0.00,VWS V14.01,2013-10-03 10:18:00,
2013-10-03 06:23:00,77.0,71.1,29.85,North,0,0.0,0.0,82,0.00,,SCT070,0.00,VWS V14.01,2013-10-03 10:23:00,
2013-10-03 06:28:00,77.0,71.1,29.85,North,0,0.0,0.0,82,0.00,,SCT070,0.00,VWS V14.01,2013-10-03 10:28:00,
2013-10-03 06:33:00,77.0,71.4,29.85,North,0,0.0,0.0,83,0.00,,SCT070,0.00,VWS V14.01,2013-10-03 10:33:00,
2013-10-03 06:38:00,76.8,71.3,29.85,North,0,0.0,0.0,83,0.00,,SCT070,0.00,VWS V14.01,2013-10-03 10:38:00,
2013-10-03 06:43:00,77.0,71.4,29.85,North,0,0.0,0.0,83,0.00,,SCT070,0.00,VWS V14.01,2013-10-03 10:43:00,
2013-10-03 06:48:00,77.0,71.4,29.85,North,0,0.0,0.0,83,0.00,,SCT070,0.00,VWS V14.01,2013-10-03 10:48:00,
2013-10-03 06:53:00,77.0,71.4,29.85,North,0,0.0,0.0,83,0.00,,SCT070,0.00,VWS V14.01,2013-10-03 10:53:00,
2013-10-03 06:58:00,76.8,71.3,29.85,North,0,0.0,0.0,83,0.00,,SCT070,0.00,VWS V14.01,2013-10-03 10:58:00,
2013-10-03 07:03:00,76.8,71.3,29.85,North,0,0.0,0.0,83,0.00,,SCT070,0.00,VWS V14.01,2013-10-03 11:03:00,
2013-10-03 07:08:00,76.8,71.6,29.85,North,0,0.0,0.0,84,0.00,,SCT070,0.00,VWS V14.01,2013-10-03 11:08:00,
2013-10-03 07:13:00,77.0,71.8,29.85,North,0,0.0,0.0,84,0.00,,SCT070,0.00,VWS V14.01,2013-10-03 11:13:00,
2013-10-03 07:18:00,77.0,71.8,29.85,North,0,0.0,0.0,84,0.00,,SCT070,0.00,VWS V14.01,2013-10-03 11:18:00,
2013-10-03 07:23:00,76.6,71.1,29.85,North,0,0.0,0.0,83,0.04,,SCT070,0.04,VWS V14.01,2013-10-03 11:23:00,
2013-10-03 07:28:00,76.6,71.1,29.88,North,0,0.0,0.0,83,0.04,,SCT070,0.04,VWS V14.01,2013-10-03 11:28:00,
2013-10-03 07:33:00,76.8,70.9,29.88,North,0,0.0,0.0,82,0.08,,SCT070,0.08,VWS V14.01,2013-10-03 11:33:00,
2013-10-03 07:38:00,77.2,71.6,29.88,North,0,0.0,0.0,83,0.08,,SCT070,0.08,VWS V14.01,2013-10-03 11:38:00,
2013-10-03 07:43:00,77.9,72.3,29.88,North,0,0.0,0.0,83,0.08,,SCT070,0.08,VWS V14.01,2013-10-03 11:43:00,
2013-10-03 07:48:00,78.3,73.0,29.88,North,0,0.0,0.0,84,0.08,,SCT070,0.08,VWS V14.01,2013-10-03 11:48:00,
2013-10-03 07:53:00,79.0,73.4,29.88,North,0,0.0,0.0,83,0.08,,SCT070,0.08,VWS V14.01,2013-10-03 11:53:00,
2013-10-03 07:58:00,79.7,74.1,29.88,North,0,0.0,0.0,83,0.08,,SCT070,0.08,VWS V14.01,2013-10-03 11:58:00,
2013-10-03 08:03:00,80.2,74.6,29.88,North,0,0.0,0.0,83,0.08,,SCT070,0.08,VWS V14.01,2013-10-03 12:03:00,
2013-10-03 08:08:00,80.6,74.6,29.88,North,0,0.0,0.0,82,0.08,,SCT070,0.08,VWS V14.01,2013-10-03 12:08:00,
2013-10-03 08:13:00,81.1,74.8,29.88,North,0,0.0,0.0,81,0.08,,SCT070,0.08,VWS V14.01,2013-10-03 12:13:00,
2013-10-03 08:18:00,81.3,74.6,29.88,North,0,0.0,0.0,80,0.08,,SCT070,0.08,VWS V14.01,2013-10-03 12:18:00,
2013-10-03 08:23:00,81.7,74.5,29.88,North,0,0.0,0.0,79,0.08,,SCT070,0.08,VWS V14.01,2013-10-03 12:23:00,
2013-10-03 08:28:00,82.0,74.1,29.88,North,0,0.0,0.0,77,0.08,,SCT070,0.08,VWS V14.01,2013-10-03 12:28:00,
2013-10-03 08:33:00,82.6,74.2,29.88,North,0,0.0,0.0,76,0.08,,SCT070,0.08,VWS V14.01,2013-10-03 12:33:00,
2013-10-03 08:38:00,83.1,73.6,29.88,North,0,0.0,0.0,73,0.08,,SCT070,0.08,VWS V14.01,2013-10-03 12:38:00,
2013-10-03 08:43:00,83.1,72.8,29.88,North,0,0.0,0.0,71,0.00,,SCT070,0.08,VWS V14.01,2013-10-03 12:43:00,
2013-10-03 08:48:00,83.8,71.7,29.88,North,0,0.0,0.0,67,0.00,,SCT070,0.08,VWS V14.01,2013-10-03 12:48:00,
2013-10-03 08:53:00,84.2,70.7,29.88,North,0,0.0,0.0,64,0.00,,SCT070,0.08,VWS V14.01,2013-10-03 12:53:00,
2013-10-03 08:58:00,84.7,71.7,29.88,North,0,0.0,0.0,65,0.00,,SCT070,0.08,VWS V14.01,2013-10-03 12:58:00,
2013-10-03 09:03:00,85.1,72.0,29.88,North,0,0.0,0.0,65,0.00,,SCT070,0.08,VWS V14.01,2013-10-03 13:03:00,
2013-10-03 09:08:00,85.6,71.1,29.88,North,0,0.0,0.0,62,0.00,,SCT070,0.08,VWS V14.01,2013-10-03 13:08:00,
2013-10-03 09:13:00,86.2,71.2,29.91,North,0,0.0,0.0,61,0.00,,SCT070,0.08,VWS V14.01,2013-10-03 13:13:00,
2013-10-03 09:18:00,86.0,70.0,29.91,North,0,0.0,0.0,59,0.00,,SCT070,0.08,VWS V14.01,2013-10-03 13:18:00,
2013-10-03 09:23:00,85.5,68.0,29.91,North,0,0.0,0.0,56,0.00,,SCT070,0.08,VWS V14.01,2013-10-03 13:23:00,
2013-10-03 09:28:00,86.0,68.5,29.91,North,0,0.0,0.0,56,0.00,,SCT070,0.08,VWS V14.01,2013-10-03 13:28:00,
2013-10-03 09:33:00,86.2,66.5,29.91,North,0,0.0,0.0,52,0.00,,SCT070,0.08,VWS V14.01,2013-10-03 13:33:00,
2013-10-03 09:38:00,87.1,66.8,29.91,North,0,0.0,0.0,51,0.00,,SCT070,0.08,VWS V14.01,2013-10-03 13:38:00,
2013-10-03 09:43:00,87.6,65.5,29.91,North,0,0.0,0.0,48,0.00,,SCT070,0.08,VWS V14.01,2013-10-03 13:43:00,
2013-10-03 09:48:00,87.6,64.9,29.91,North,0,0.0,0.0,47,0.00,,SCT070,0.08,VWS V14.01,2013-10-03 13:48:00,
2013-10-03 09:53:00,87.4,65.4,29.91,North,0,0.0,0.0,48,0.00,,SCT070,0.08,VWS V14.01,2013-10-03 13:53:00,
2013-10-03 09:58:00,87.8,66.9,29.91,North,0,0.0,0.0,50,0.00,,SCT070,0.08,VWS V14.01,2013-10-03 13:58:00,
2013-10-03 10:03:00,87.4,65.9,29.91,North,0,0.0,0.0,49,0.00,,SCT070,0.08,VWS V14.01,2013-10-03 14:03:00,
2013-10-03 10:08:00,87.6,63.7,29.91,North,0,0.0,0.0,45,0.00,,SCT070,0.08,VWS V14.01,2013-10-03 14:08:00,
2013-10-03 10:13:00,87.3,64.0,29.91,North,0,0.0,0.0,46,0.00,,SCT070,0.08,VWS V14.01,2013-10-03 14:13:00,
2013-10-03 10:18:00,86.5,62.7,29.91,North,0,0.0,0.0,45,0.00,,SCT070,0.08,VWS V14.01,2013-10-03 14:18:00,
2013-10-03 10:23:00,86.2,63.6,29.91,North,0,0.0,0.0,47,0.00,,SCT070,0.08,VWS V14.01,2013-10-03 14:23:00,
2013-10-03 10:28:00,87.1,64.4,29.91,North,0,0.0,0.0,47,0.00,,SCT070,0.08,VWS V14.01,2013-10-03 14:28:00,
2013-10-03 10:33:00,88.0,62.7,29.91,North,0,0.0,0.0,43,0.00,,SCT070,0.08,VWS V14.01,2013-10-03 14:33:00,
2013-10-03 10:38:00,88.3,61.7,29.91,North,0,0.0,0.0,41,0.00,,SCT070,0.08,VWS V14.01,2013-10-03 14:38:00,
2013-10-03 10:43:00,89.2,57.2,29.91,North,0,0.0,0.0,34,0.00,,SCT070,0.08,VWS V14.01,2013-10-03 14:43:00,
2013-10-03 10:48:00,89.6,55.9,29.91,North,0,0.0,0.0,32,0.00,,SCT070,0.08,VWS V14.01,2013-10-03 14:48:00,
2013-10-03 10:53:00,89.6,56.7,29.91,North,0,0.0,0.0,33,0.00,,SCT070,0.08,VWS V14.01,2013-10-03 14:53:00,
2013-10-03 10:58:00,88.7,56.8,29.91,North,0,0.0,0.0,34,0.00,,SCT070,0.08,VWS V14.01,2013-10-03 14:58:00,
2013-10-03 11:03:00,88.3,57.2,29.91,North,0,0.0,0.0,35,0.00,,SCT070,0.08,VWS V14.01,2013-10-03 15:03:00,
2013-10-03 11:08:00,88.7,55.1,29.91,North,0,0.0,0.0,32,0.00,,SCT070,0.08,VWS V14.01,2013-10-03 15:08:00,
2013-10-03 11:13:00,89.4,53.9,29.88,North,0,0.0,0.0,30,0.00,,SCT070,0.08,VWS V14.01,2013-10-03 15:13:00,
2013-10-03 11:18:00,90.1,54.5,29.88,North,0,0.0,0.0,30,0.00,,SCT070,0.08,VWS V14.01,2013-10-03 15:18:00,
2013-10-03 11:23:00,90.7,54.1,29.88,North,0,0.0,0.0,29,0.00,,SCT070,0.08,VWS V14.01,2013-10-03 15:23:00,
2013-10-03 11:28:00,90.9,54.2,29.88,North,0,0.0,0.0,29,0.00,,SCT070,0.08,VWS V14.01,2013-10-03 15:28:00,
2013-10-03 11:33:00,90.5,53.9,29.88,North,0,0.0,0.0,29,0.00,,SCT070,0.08,VWS V14.01,2013-10-03 15:33:00,
2013-10-03 11:38:00,90.1,52.7,29.88,North,0,0.0,0.0,28,0.00,,SCT070,0.08,VWS V14.01,2013-10-03 15:38:00,
2013-10-03 11:44:00,90.0,52.5,29.88,North,0,0.0,0.0,28,0.00,,SCT070,0.08,VWS V14.01,2013-10-03 15:44:00,
2013-10-03 11:49:00,89.6,50.2,29.88,North,0,0.0,0.0,26,0.00,,SCT070,0.08,VWS V14.01,2013-10-03 15:49:00,
2013-10-03 11:54:00,88.5,51.3,29.88,North,0,0.0,0.0,28,0.00,,SCT070,0.08,VWS V14.01,2013-10-03 15:54:00,
2013-10-03 11:59:00,87.8,52.5,29.88,North,0,0.0,0.0,30,0.00,,SCT070,0.08,VWS V14.01,2013-10-03 15:59:00,
2013-10-03 12:04:00,87.4,54.8,29.88,North,0,0.0,0.0,33,0.00,,SCT070,0.08,VWS V14.01,2013-10-03 16:04:00,
2013-10-03 12:09:00,86.9,52.7,29.88,North,0,0.0,0.0,31,0.00,,SCT070,0.08,VWS V14.01,2013-10-03 16:09:00,
2013-10-03 12:14:00,86.9,51.8,29.88,North,0,0.0,0.0,30,0.00,,SCT070,0.08,VWS V14.01,2013-10-03 16:14:00,
2013-10-03 12:19:00,87.1,51.9,29.88,North,0,0.0,0.0,30,0.00,,SCT070,0.08,VWS V14.01,2013-10-03 16:19:00,
2013-10-03 12:24:00,87.1,51.9,29.88,North,0,0.0,0.0,30,0.00,,SCT070,0.08,VWS V14.01,2013-10-03 16:24:00,
2013-10-03 12:29:00,87.3,52.1,29.88,North,0,0.0,0.0,30,0.00,,SCT070,0.08,VWS V14.01,2013-10-03 16:29:00,
2013-10-03 12:34:00,87.3,52.1,29.88,North,0,0.0,0.0,30,0.00,,SCT070,0.08,VWS V14.01,2013-10-03 16:34:00,
2013-10-03 12:39:00,87.3,52.1,29.88,North,0,0.0,0.0,30,0.00,,SCT070,0.08,VWS V14.01,2013-10-03 16:39:00,
2013-10-03 12:44:00,87.4,51.3,29.85,North,0,0.0,0.0,29,0.00,,SCT070,0.08,VWS V14.01,2013-10-03 16:44:00,
2013-10-03 12:49:00,87.4,52.2,29.85,North,0,0.0,0.0,30,0.00,,SCT070,0.08,VWS V14.01,2013-10-03 16:49:00,
2013-10-03 12:54:00,87.3,52.1,29.85,North,0,0.0,0.0,30,0.00,,SCT070,0.08,VWS V14.01,2013-10-03 16:54:00,
2013-10-03 12:59:00,87.6,53.3,29.85,North,0,0.0,0.0,31,0.00,,SCT070,0.08,VWS V14.01,2013-10-03 16:59:00,
2013-10-03 13:04:00,88.7,53.3,29.85,North,0,0.0,0.0,30,0.00,,SCT070,0.08,VWS V14.01,2013-10-03 17:04:00,
2013-10-03 13:09:00,90.0,54.4,29.85,North,0,0.0,0.0,30,0.00,,SCT070,0.08,VWS V14.01,2013-10-03 17:09:00,
2013-10-03 13:14:00,91.2,54.5,29.85,North,0,0.0,0.0,29,0.00,,SCT070,0.08,VWS V14.01,2013-10-03 17:14:00,
2013-10-03 13:19:00,91.8,54.0,29.85,North,0,0.0,0.0,28,0.00,,SCT070,0.08,VWS V14.01,2013-10-03 17:19:00,
2013-10-03 13:24:00,91.8,54.0,29.85,North,0,0.0,0.0,28,0.00,,SCT070,0.08,VWS V14.01,2013-10-03 17:24:00,
2013-10-03 13:29:00,91.2,53.6,29.85,North,0,0.0,0.0,28,0.00,,SCT070,0.08,VWS V14.01,2013-10-03 17:29:00,
2013-10-03 13:34:00,90.5,54.9,29.85,North,0,0.0,0.0,30,0.00,,SCT070,0.08,VWS V14.01,2013-10-03 17:34:00,
2013-10-03 13:39:00,90.1,54.5,29.85,North,0,0.0,0.0,30,0.00,,SCT070,0.08,VWS V14.01,2013-10-03 17:39:00,
2013-10-03 13:44:00,89.1,53.6,29.82,North,0,0.0,0.0,30,0.00,,SCT070,0.08,VWS V14.01,2013-10-03 17:44:00,
2013-10-03 13:49:00,88.7,54.2,29.82,North,0,0.0,0.0,31,0.00,,SCT070,0.08,VWS V14.01,2013-10-03 17:49:00,
2013-10-03 13:54:00,88.2,55.5,29.82,North,0,0.0,0.0,33,0.00,,SCT070,0.08,VWS V14.01,2013-10-03 17:54:00,
2013-10-03 13:59:00,87.8,53.4,29.82,North,0,0.0,0.0,31,0.00,,SCT070,0.08,VWS V14.01,2013-10-03 17:59:00,
2013-10-03 14:04:00,88.0,54.5,29.82,North,0,0.0,0.0,32,0.00,,SCT070,0.08,VWS V14.01,2013-10-03 18:04:00,
2013-10-03 14:09:00,88.0,51.8,29.82,North,0,0.0,0.0,29,0.00,,SCT070,0.08,VWS V14.01,2013-10-03 18:09:00,
2013-10-03 14:14:00,88.2,51.0,29.82,North,0,0.0,0.0,28,0.00,,SCT070,0.08,VWS V14.01,2013-10-03 18:14:00,
2013-10-03 14:23:00,88.7,52.4,29.82,North,0,0.0,0.0,29,0.00,,SCT070,0.08,VWS V14.01,2013-10-03 18:23:00,
2013-10-03 14:28:00,88.9,53.5,29.82,North,0,0.0,0.0,30,0.00,,SCT070,0.08,VWS V14.01,2013-10-03 18:28:00,
2013-10-03 14:33:00,88.7,53.3,29.82,North,0,0.0,0.0,30,0.00,,SCT070,0.08,VWS V14.01,2013-10-03 18:33:00,
2013-10-03 14:38:00,88.9,54.4,29.82,North,0,0.0,0.0,31,0.00,,SCT070,0.08,VWS V14.01,2013-10-03 18:38:00,
2013-10-03 14:43:00,88.5,54.1,29.82,North,0,0.0,0.0,31,0.00,,SCT070,0.08,VWS V14.01,2013-10-03 18:43:00,
2013-10-03 14:48:00,88.2,53.7,29.82,North,0,0.0,0.0,31,0.00,,SCT070,0.08,VWS V14.01,2013-10-03 18:48:00,
2013-10-03 14:53:00,88.0,52.7,29.82,North,0,0.0,0.0,30,0.00,,SCT070,0.08,VWS V14.01,2013-10-03 18:53:00,
2013-10-03 14:58:00,87.6,53.3,29.82,North,0,0.0,0.0,31,0.00,,SCT070,0.08,VWS V14.01,2013-10-03 18:58:00,
2013-10-03 15:03:00,87.6,54.2,29.82,North,0,0.0,0.0,32,0.00,,SCT070,0.08,VWS V14.01,2013-10-03 19:03:00,
2013-10-03 15:08:00,87.4,54.8,29.82,North,0,0.0,0.0,33,0.00,,SCT070,0.08,VWS V14.01,2013-10-03 19:08:00,
2013-10-03 15:13:00,87.3,55.5,29.82,North,0,0.0,0.0,34,0.00,,SCT070,0.08,VWS V14.01,2013-10-03 19:13:00,
2013-10-03 15:18:00,87.4,55.7,29.82,North,0,0.0,0.0,34,0.00,,SCT070,0.08,VWS V14.01,2013-10-03 19:18:00,
2013-10-03 15:23:00,87.1,56.1,29.82,North,0,0.0,0.0,35,0.00,,SCT070,0.08,VWS V14.01,2013-10-03 19:23:00,
2013-10-03 15:28:00,87.3,57.1,29.82,North,0,0.0,0.0,36,0.00,,SCT070,0.08,VWS V14.01,2013-10-03 19:28:00,
2013-10-03 15:33:00,86.9,56.8,29.82,North,0,0.0,0.0,36,0.00,,SCT070,0.08,VWS V14.01,2013-10-03 19:33:00,
2013-10-03 15:38:00,86.7,57.4,29.82,North,0,0.0,0.0,37,0.00,,SCT070,0.08,VWS V14.01,2013-10-03 19:38:00,
2013-10-03 15:43:00,86.7,58.1,29.82,North,0,0.0,0.0,38,0.00,,SCT070,0.08,VWS V14.01,2013-10-03 19:43:00,
2013-10-03 15:48:00,86.7,58.1,29.82,North,0,0.0,0.0,38,0.00,,SCT070,0.08,VWS V14.01,2013-10-03 19:48:00,
2013-10-03 15:53:00,86.9,59.0,29.82,North,0,0.0,0.0,39,0.00,,SCT070,0.08,VWS V14.01,2013-10-03 19:53:00,
2013-10-03 15:58:00,86.9,59.0,29.82,North,0,0.0,0.0,39,0.00,,SCT070,0.08,VWS V14.01,2013-10-03 19:58:00,
2013-10-03 16:03:00,86.7,58.8,29.82,North,0,0.0,0.0,39,0.00,,SCT070,0.08,VWS V14.01,2013-10-03 20:03:00,
2013-10-03 16:08:00,86.9,59.0,29.82,North,0,0.0,0.0,39,0.00,,SCT070,0.08,VWS V14.01,2013-10-03 20:08:00,
2013-10-03 16:13:00,87.1,59.2,29.82,North,0,0.0,0.0,39,0.00,,SCT070,0.08,VWS V14.01,2013-10-03 20:13:00,
2013-10-03 16:18:00,87.3,59.3,29.82,North,0,0.0,0.0,39,0.00,,SCT070,0.08,VWS V14.01,2013-10-03 20:18:00,
2013-10-03 16:23:00,87.3,58.6,29.82,North,0,0.0,0.0,38,0.00,,SCT070,0.08,VWS V14.01,2013-10-03 20:23:00,
2013-10-03 16:28:00,87.3,58.6,29.82,North,0,0.0,0.0,38,0.00,,SCT070,0.08,VWS V14.01,2013-10-03 20:28:00,
2013-10-03 16:33:00,87.1,58.4,29.82,North,0,0.0,0.0,38,0.00,,SCT070,0.08,VWS V14.01,2013-10-03 20:33:00,
2013-10-03 16:38:00,87.1,59.2,29.82,North,0,0.0,0.0,39,0.00,,SCT070,0.08,VWS V14.01,2013-10-03 20:38:00,
2013-10-03 16:43:00,87.1,58.4,29.82,North,0,0.0,0.0,38,0.00,,SCT070,0.08,VWS V14.01,2013-10-03 20:43:00,
2013-10-03 16:48:00,86.9,58.3,29.82,North,0,0.0,0.0,38,0.00,,SCT070,0.08,VWS V14.01,2013-10-03 20:48:00,
2013-10-03 16:53:00,86.9,59.0,29.82,North,0,0.0,0.0,39,0.00,,SCT070,0.08,VWS V14.01,2013-10-03 20:53:00,
2013-10-03 16:58:00,86.7,58.8,29.82,North,0,0.0,0.0,39,0.00,,SCT070,0.08,VWS V14.01,2013-10-03 20:58:00,
2013-10-03 17:03:00,86.5,58.7,29.82,North,0,0.0,0.0,39,0.00,,SCT070,0.08,VWS V14.01,2013-10-03 21:03:00,
2013-10-03 17:08:00,86.4,58.5,29.82,North,0,0.0,0.0,39,0.00,,SCT070,0.08,VWS V14.01,2013-10-03 21:08:00,
2013-10-03 17:13:00,86.4,58.5,29.79,North,0,0.0,0.0,39,0.00,,SCT070,0.08,VWS V14.01,2013-10-03 21:13:00,
2013-10-03 17:18:00,86.2,58.3,29.79,North,0,0.0,0.0,39,0.00,,SCT070,0.08,VWS V14.01,2013-10-03 21:18:00,
2013-10-03 17:23:00,86.2,58.3,29.79,North,0,0.0,0.0,39,0.00,,SCT070,0.08,VWS V14.01,2013-10-03 21:23:00,
2013-10-03 17:28:00,86.0,58.2,29.82,North,0,0.0,0.0,39,0.00,,SCT070,0.08,VWS V14.01,2013-10-03 21:28:00,
2013-10-03 17:33:00,86.0,57.5,29.82,North,0,0.0,0.0,38,0.00,,SCT070,0.08,VWS V14.01,2013-10-03 21:33:00,
2013-10-03 17:38:00,86.2,57.6,29.82,North,0,0.0,0.0,38,0.00,,SCT070,0.08,VWS V14.01,2013-10-03 21:38:00,
2013-10-03 17:43:00,86.4,57.8,29.82,North,0,0.0,0.0,38,0.00,,SCT070,0.08,VWS V14.01,2013-10-03 21:43:00,
2013-10-03 17:48:00,86.2,56.9,29.82,North,0,0.0,0.0,37,0.00,,SCT070,0.08,VWS V14.01,2013-10-03 21:48:00,
2013-10-03 17:53:00,86.2,56.9,29.82,North,0,0.0,0.0,37,0.00,,SCT070,0.08,VWS V14.01,2013-10-03 21:53:00,
2013-10-03 17:58:00,86.2,56.9,29.82,North,0,0.0,0.0,37,0.00,,SCT070,0.08,VWS V14.01,2013-10-03 21:58:00,
2013-10-03 18:03:00,86.0,56.7,29.82,North,0,0.0,0.0,37,0.00,,SCT070,0.08,VWS V14.01,2013-10-03 22:03:00,
2013-10-03 18:08:00,85.8,57.3,29.82,North,0,0.0,0.0,38,0.00,,SCT070,0.08,VWS V14.01,2013-10-03 22:08:00,
2013-10-03 18:13:00,85.6,57.1,29.82,North,0,0.0,0.0,38,0.00,,SCT070,0.08,VWS V14.01,2013-10-03 22:13:00,
2013-10-03 18:18:00,85.5,57.7,29.82,North,0,0.0,0.0,39,0.00,,SCT070,0.08,VWS V14.01,2013-10-03 22:18:00,
2013-10-03 18:23:00,85.3,57.5,29.82,North,0,0.0,0.0,39,0.00,,SCT070,0.08,VWS V14.01,2013-10-03 22:23:00,
2013-10-03 18:28:00,85.1,57.4,29.82,North,0,0.0,0.0,39,0.00,,SCT070,0.08,VWS V14.01,2013-10-03 22:28:00,
2013-10-03 18:33:00,84.9,57.9,29.82,North,0,0.0,0.0,40,0.00,,SCT070,0.08,VWS V14.01,2013-10-03 22:33:00,
2013-10-03 18:38:00,84.7,57.8,29.82,North,0,0.0,0.0,40,0.00,,SCT070,0.08,VWS V14.01,2013-10-03 22:38:00,
2013-10-03 18:43:00,84.7,57.8,29.82,North,0,0.0,0.0,40,0.00,,SCT070,0.08,VWS V14.01,2013-10-03 22:43:00,
2013-10-03 18:48:00,84.7,57.8,29.82,North,0,0.0,0.0,40,0.00,,SCT070,0.08,VWS V14.01,2013-10-03 22:48:00,
2013-10-03 18:53:00,84.6,58.3,29.82,North,0,0.0,0.0,41,0.00,,SCT070,0.08,VWS V14.01,2013-10-03 22:53:00,
2013-10-03 18:58:00,84.6,58.3,29.82,North,0,0.0,0.0,41,0.00,,SCT070,0.08,VWS V14.01,2013-10-03 22:58:00,
2013-10-03 19:03:00,84.6,59.0,29.82,North,0,0.0,0.0,42,0.00,,SCT070,0.08,VWS V14.01,2013-10-03 23:03:00,
2013-10-03 19:08:00,84.6,59.0,29.82,North,0,0.0,0.0,42,0.00,,SCT070,0.08,VWS V14.01,2013-10-03 23:08:00,
2013-10-03 19:13:00,84.4,59.5,29.82,North,0,0.0,0.0,43,0.00,,SCT070,0.08,VWS V14.01,2013-10-03 23:13:00,
2013-10-03 19:18:00,84.4,59.5,29.82,North,0,0.0,0.0,43,0.00,,SCT070,0.08,VWS V14.01,2013-10-03 23:18:00,
2013-10-03 19:23:00,84.2,60.0,29.82,North,0,0.0,0.0,44,0.00,,SCT070,0.08,VWS V14.01,2013-10-03 23:23:00,
2013-10-03 19:28:00,84.0,60.4,29.85,North,0,0.0,0.0,45,0.00,,SCT070,0.08,VWS V14.01,2013-10-03 23:28:00,
2013-10-03 19:33:00,83.8,60.9,29.85,North,0,0.0,0.0,46,0.00,,SCT070,0.08,VWS V14.01,2013-10-03 23:33:00,
2013-10-03 19:38:00,83.5,61.8,29.85,North,0,0.0,0.0,48,0.00,,SCT070,0.08,VWS V14.01,2013-10-03 23:38:00,
2013-10-03 19:43:00,83.3,62.7,29.85,North,0,0.0,0.0,50,0.00,,SCT070,0.08,VWS V14.01,2013-10-03 23:43:00,
2013-10-03 19:48:00,83.1,63.7,29.85,North,0,0.0,0.0,52,0.00,,SCT070,0.08,VWS V14.01,2013-10-03 23:48:00,
2013-10-03 19:53:00,83.1,64.2,29.85,North,0,0.0,0.0,53,0.00,,SCT070,0.08,VWS V14.01,2013-10-03 23:53:00,
2013-10-03 19:58:00,83.1,64.8,29.85,North,0,0.0,0.0,54,0.00,,SCT070,0.08,VWS V14.01,2013-10-03 23:58:00,
2013-10-03 20:03:00,83.1,65.3,29.85,North,0,0.0,0.0,55,0.00,,SCT070,0.08,VWS V14.01,2013-10-04 00:03:00,
2013-10-03 20:08:00,82.9,65.1,29.85,North,0,0.0,0.0,55,0.00,,SCT070,0.08,VWS V14.01,2013-10-04 00:08:00,
2013-10-03 20:13:00,82.9,65.7,29.85,North,0,0.0,0.0,56,0.00,,SCT070,0.08,VWS V14.01,2013-10-04 00:13:00,
2013-10-03 20:18:00,82.8,66.0,29.85,North,0,0.0,0.0,57,0.00,,SCT070,0.08,VWS V14.01,2013-10-04 00:18:00,
2013-10-03 20:23:00,82.4,67.1,29.85,North,0,0.0,0.0,60,0.00,,SCT070,0.08,VWS V14.01,2013-10-04 00:23:00,
2013-10-03 20:28:00,82.2,67.9,29.85,North,0,0.0,0.0,62,0.00,,SCT070,0.08,VWS V14.01,2013-10-04 00:28:00,
2013-10-03 20:33:00,82.4,68.1,29.85,North,0,0.0,0.0,62,0.00,,SCT070,0.08,VWS V14.01,2013-10-04 00:33:00,
2013-10-03 20:38:00,82.2,67.9,29.85,North,0,0.0,0.0,62,0.00,,SCT070,0.08,VWS V14.01,2013-10-04 00:38:00,
2013-10-03 20:43:00,82.0,68.2,29.88,North,0,0.0,0.0,63,0.00,,SCT070,0.08,VWS V14.01,2013-10-04 00:43:00,
2013-10-03 20:48:00,81.9,68.5,29.88,North,0,0.0,0.0,64,0.00,,SCT070,0.08,VWS V14.01,2013-10-04 00:48:00,
2013-10-03 20:53:00,82.0,69.1,29.88,North,0,0.0,0.0,65,0.00,,SCT070,0.08,VWS V14.01,2013-10-04 00:53:00,
2013-10-03 20:58:00,82.0,69.1,29.88,North,0,0.0,0.0,65,0.00,,SCT070,0.08,VWS V14.01,2013-10-04 00:58:00,
2013-10-03 21:03:00,81.7,68.8,29.88,North,0,0.0,0.0,65,0.00,,SCT070,0.08,VWS V14.01,2013-10-04 01:03:00,
2013-10-03 21:08:00,81.7,68.8,29.88,North,0,0.0,0.0,65,0.00,,SCT070,0.08,VWS V14.01,2013-10-04 01:08:00,
2013-10-03 21:13:00,81.7,68.8,29.88,North,0,0.0,0.0,65,0.00,,SCT070,0.08,VWS V14.01,2013-10-04 01:13:00,
2013-10-03 21:18:00,81.7,68.8,29.88,North,0,0.0,0.0,65,0.00,,SCT070,0.08,VWS V14.01,2013-10-04 01:18:00,
2013-10-03 21:23:00,81.5,69.1,29.88,North,0,0.0,0.0,66,0.00,,SCT070,0.08,VWS V14.01,2013-10-04 01:23:00,
2013-10-03 21:28:00,81.1,68.7,29.88,North,0,0.0,0.0,66,0.00,,SCT070,0.08,VWS V14.01,2013-10-04 01:28:00,
2013-10-03 21:34:00,81.0,69.0,29.88,North,0,0.0,0.0,67,0.00,,SCT070,0.08,VWS V14.01,2013-10-04 01:34:00,
2013-10-03 21:38:00,81.0,69.4,29.88,North,0,0.0,0.0,68,0.00,,SCT070,0.08,VWS V14.01,2013-10-04 01:38:00,
2013-10-03 21:44:00,81.0,69.4,29.88,North,0,0.0,0.0,68,0.00,,SCT070,0.08,VWS V14.01,2013-10-04 01:44:00,
2013-10-03 21:49:00,81.0,69.4,29.88,North,0,0.0,0.0,68,0.00,,SCT070,0.08,VWS V14.01,2013-10-04 01:49:00,
2013-10-03 21:53:00,81.0,69.4,29.88,North,0,0.0,0.0,68,0.00,,SCT070,0.08,VWS V14.01,2013-10-04 01:53:00,
2013-10-03 21:59:00,81.0,69.4,29.88,North,0,0.0,0.0,68,0.00,,SCT070,0.08,VWS V14.01,2013-10-04 01:59:00,
2013-10-03 22:04:00,80.8,69.2,29.88,North,0,0.0,0.0,68,0.00,,SCT070,0.08,VWS V14.01,2013-10-04 02:04:00,
2013-10-03 22:09:00,80.4,68.9,29.88,North,0,0.0,0.0,68,0.00,,SCT070,0.08,VWS V14.01,2013-10-04 02:09:00,
2013-10-03 22:14:00,80.2,69.2,29.85,North,0,0.0,0.0,69,0.00,,SCT070,0.08,VWS V14.01,2013-10-04 02:14:00,
2013-10-03 22:19:00,80.1,69.0,29.85,North,0,0.0,0.0,69,0.00,,SCT070,0.08,VWS V14.01,2013-10-04 02:19:00,
2013-10-03 22:24:00,80.1,69.0,29.85,North,0,0.0,0.0,69,0.00,,SCT070,0.08,VWS V14.01,2013-10-04 02:24:00,
2013-10-03 22:29:00,80.1,69.4,29.88,North,0,0.0,0.0,70,0.00,,SCT070,0.08,VWS V14.01,2013-10-04 02:29:00,
2013-10-03 22:34:00,80.1,69.4,29.88,North,0,0.0,0.0,70,0.00,,SCT070,0.08,VWS V14.01,2013-10-04 02:34:00,
2013-10-03 22:39:00,80.1,69.4,29.88,North,0,0.0,0.0,70,0.00,,SCT070,0.08,VWS V14.01,2013-10-04 02:39:00,
2013-10-03 22:44:00,79.9,69.2,29.85,North,0,0.0,0.0,70,0.00,,SCT070,0.08,VWS V14.01,2013-10-04 02:44:00,
2013-10-03 22:49:00,79.7,69.5,29.85,North,0,0.0,0.0,71,0.00,,SCT070,0.08,VWS V14.01,2013-10-04 02:49:00,
2013-10-03 22:54:00,79.5,69.3,29.85,North,0,0.0,0.0,71,0.00,,SCT070,0.08,VWS V14.01,2013-10-04 02:54:00,
2013-10-03 22:59:00,79.7,69.5,29.85,North,0,0.0,0.0,71,0.00,,SCT070,0.08,VWS V14.01,2013-10-04 02:59:00,
2013-10-03 23:04:00,79.7,69.9,29.85,North,0,0.0,0.0,72,0.00,,SCT070,0.08,VWS V14.01,2013-10-04 03:04:00,
2013-10-03 23:09:00,79.9,70.1,29.85,North,0,0.0,0.0,72,0.00,,SCT070,0.08,VWS V14.01,2013-10-04 03:09:00,
2013-10-03 23:14:00,79.7,69.9,29.85,North,0,0.0,0.0,72,0.00,,SCT070,0.08,VWS V14.01,2013-10-04 03:14:00,
2013-10-03 23:19:00,79.5,69.3,29.85,North,0,0.0,0.0,71,0.00,,SCT070,0.08,VWS V14.01,2013-10-04 03:19:00,
2013-10-03 23:24:00,79.2,68.9,29.85,North,0,0.0,0.0,71,0.00,,SCT070,0.08,VWS V14.01,2013-10-04 03:24:00,
2013-10-03 23:29:00,79.2,69.4,29.85,North,0,0.0,0.0,72,0.00,,SCT070,0.08,VWS V14.01,2013-10-04 03:29:00,
2013-10-03 23:34:00,79.0,69.2,29.85,North,0,0.0,0.0,72,0.00,,SCT070,0.08,VWS V14.01,2013-10-04 03:34:00,
2013-10-03 23:39:00,79.0,69.6,29.85,North,0,0.0,0.0,73,0.00,,SCT070,0.08,VWS V14.01,2013-10-04 03:39:00,
2013-10-03 23:44:00,78.8,69.4,29.85,North,0,0.0,0.0,73,0.00,,SCT070,0.08,VWS V14.01,2013-10-04 03:44:00,
2013-10-03 23:49:00,78.8,69.8,29.85,North,0,0.0,0.0,74,0.00,,SCT070,0.08,VWS V14.01,2013-10-04 03:49:00,
2013-10-03 23:54:00,78.6,70.0,29.85,North,0,0.0,0.0,75,0.00,,SCT070,0.08,VWS V14.01,2013-10-04 03:54:00,
2013-10-03 23:59:00,78.6,70.0,29.88,North,0,0.0,0.0,75,0.00,,SCT070,0.00,VWS V14.01,2013-10-04 03:59:00,